sensor_id;sensor_type;location;lat;lon;timestamp;P1;durP1;ratioP1;P2;durP2;ratioP2
70505;SDS011;58032;49.820;6.274;2022-10-31T00:01:20;9.93;;;3.07;;
70505;SDS011;58032;49.820;6.274;2022-10-31T00:03:50;7.22;;;2.85;;
70505;SDS011;58032;49.820;6.274;2022-10-31T00:06:17;11.00;;;3.78;;
70505;SDS011;58032;49.820;6.274;2022-10-31T00:08:47;12.80;;;3.05;;
70505;SDS011;58032;49.820;6.274;2022-10-31T00:11:19;8.10;;;2.83;;
70505;SDS011;58032;49.820;6.274;2022-10-31T00:13:46;9.83;;;3.20;;
70505;SDS011;58032;49.820;6.274;2022-10-31T00:16:13;9.25;;;3.10;;
70505;SDS011;58032;49.820;6.274;2022-10-31T00:18:42;9.80;;;3.30;;
70505;SDS011;58032;49.820;6.274;2022-10-31T00:21:09;9.15;;;3.17;;
70505;SDS011;58032;49.820;6.274;2022-10-31T00:23:36;10.93;;;3.17;;
70505;SDS011;58032;49.820;6.274;2022-10-31T00:26:04;8.57;;;2.83;;
70505;SDS011;58032;49.820;6.274;2022-10-31T00:28:31;10.38;;;2.92;;
70505;SDS011;58032;49.820;6.274;2022-10-31T00:31:03;10.93;;;3.67;;
70505;SDS011;58032;49.820;6.274;2022-10-31T00:33:35;9.60;;;3.15;;
70505;SDS011;58032;49.820;6.274;2022-10-31T00:36:04;8.57;;;3.10;;
70505;SDS011;58032;49.820;6.274;2022-10-31T00:38:32;13.07;;;3.23;;
70505;SDS011;58032;49.820;6.274;2022-10-31T00:40:59;10.45;;;3.00;;
70505;SDS011;58032;49.820;6.274;2022-10-31T00:43:26;12.32;;;3.22;;
70505;SDS011;58032;49.820;6.274;2022-10-31T00:45:53;10.75;;;3.55;;
70505;SDS011;58032;49.820;6.274;2022-10-31T00:48:23;11.52;;;3.55;;
70505;SDS011;58032;49.820;6.274;2022-10-31T00:50:51;10.37;;;3.33;;
70505;SDS011;58032;49.820;6.274;2022-10-31T00:53:19;9.95;;;3.60;;
70505;SDS011;58032;49.820;6.274;2022-10-31T00:55:46;8.45;;;3.92;;
70505;SDS011;58032;49.820;6.274;2022-10-31T00:58:13;11.52;;;4.20;;
70505;SDS011;58032;49.820;6.274;2022-10-31T01:00:46;10.88;;;3.78;;
70505;SDS011;58032;49.820;6.274;2022-10-31T01:03:25;7.30;;;3.03;;
70505;SDS011;58032;49.820;6.274;2022-10-31T01:06:02;9.38;;;2.95;;
70505;SDS011;58032;49.820;6.274;2022-10-31T01:08:34;8.90;;;3.15;;
70505;SDS011;58032;49.820;6.274;2022-10-31T01:11:13;13.43;;;3.47;;
70505;SDS011;58032;49.820;6.274;2022-10-31T01:13:42;19.83;;;3.80;;
70505;SDS011;58032;49.820;6.274;2022-10-31T01:16:13;9.93;;;3.77;;
70505;SDS011;58032;49.820;6.274;2022-10-31T01:18:42;10.15;;;3.47;;
70505;SDS011;58032;49.820;6.274;2022-10-31T01:21:11;12.52;;;4.03;;
70505;SDS011;58032;49.820;6.274;2022-10-31T01:23:40;11.68;;;4.25;;
70505;SDS011;58032;49.820;6.274;2022-10-31T01:26:17;9.77;;;3.55;;
70505;SDS011;58032;49.820;6.274;2022-10-31T01:28:48;9.33;;;3.60;;
70505;SDS011;58032;49.820;6.274;2022-10-31T01:31:16;12.93;;;3.90;;
70505;SDS011;58032;49.820;6.274;2022-10-31T01:33:45;7.72;;;4.13;;
70505;SDS011;58032;49.820;6.274;2022-10-31T01:38:41;8.77;;;3.42;;
70505;SDS011;58032;49.820;6.274;2022-10-31T01:41:10;10.23;;;3.47;;
70505;SDS011;58032;49.820;6.274;2022-10-31T01:43:41;10.88;;;3.88;;
70505;SDS011;58032;49.820;6.274;2022-10-31T01:46:09;10.20;;;3.50;;
70505;SDS011;58032;49.820;6.274;2022-10-31T01:48:37;10.27;;;3.67;;
70505;SDS011;58032;49.820;6.274;2022-10-31T01:51:07;8.13;;;3.25;;
70505;SDS011;58032;49.820;6.274;2022-10-31T01:53:36;9.90;;;3.50;;
70505;SDS011;58032;49.820;6.274;2022-10-31T01:56:04;10.85;;;3.35;;
70505;SDS011;58032;49.820;6.274;2022-10-31T01:58:31;10.68;;;3.40;;
70505;SDS011;58032;49.820;6.274;2022-10-31T02:00:59;15.57;;;3.80;;
70505;SDS011;58032;49.820;6.274;2022-10-31T02:03:28;8.35;;;3.50;;
70505;SDS011;58032;49.820;6.274;2022-10-31T02:05:56;13.13;;;4.30;;
70505;SDS011;58032;49.820;6.274;2022-10-31T02:10:56;9.98;;;3.90;;
70505;SDS011;58032;49.820;6.274;2022-10-31T02:13:24;10.10;;;2.97;;
70505;SDS011;58032;49.820;6.274;2022-10-31T02:15:53;16.23;;;4.03;;
70505;SDS011;58032;49.820;6.274;2022-10-31T02:18:22;12.90;;;3.87;;
70505;SDS011;58032;49.820;6.274;2022-10-31T02:26:47;10.18;;;3.78;;
70505;SDS011;58032;49.820;6.274;2022-10-31T02:32:09;8.30;;;3.30;;
70505;SDS011;58032;49.820;6.274;2022-10-31T02:37:20;9.95;;;3.63;;
70505;SDS011;58032;49.820;6.274;2022-10-31T02:40:15;11.27;;;4.18;;
70505;SDS011;58032;49.820;6.274;2022-10-31T02:43:09;12.88;;;3.75;;
70505;SDS011;58032;49.820;6.274;2022-10-31T02:46:07;9.07;;;3.97;;
70505;SDS011;58032;49.820;6.274;2022-10-31T02:48:41;10.07;;;3.45;;
70505;SDS011;58032;49.820;6.274;2022-10-31T02:51:11;10.50;;;3.25;;
70505;SDS011;58032;49.820;6.274;2022-10-31T02:53:38;8.55;;;3.33;;
70505;SDS011;58032;49.820;6.274;2022-10-31T02:58:47;11.10;;;3.33;;
70505;SDS011;58032;49.820;6.274;2022-10-31T03:01:26;9.02;;;3.17;;
70505;SDS011;58032;49.820;6.274;2022-10-31T03:15:22;9.10;;;2.95;;
70505;SDS011;58032;49.820;6.274;2022-10-31T03:20:56;12.55;;;3.00;;
70505;SDS011;58032;49.820;6.274;2022-10-31T03:23:34;6.38;;;2.80;;
70505;SDS011;58032;49.820;6.274;2022-10-31T03:26:04;11.80;;;3.13;;
70505;SDS011;58032;49.820;6.274;2022-10-31T03:28:36;11.52;;;3.10;;
70505;SDS011;58032;49.820;6.274;2022-10-31T03:31:07;10.27;;;3.60;;
70505;SDS011;58032;49.820;6.274;2022-10-31T03:33:39;8.43;;;3.05;;
70505;SDS011;58032;49.820;6.274;2022-10-31T03:36:09;9.43;;;2.92;;
70505;SDS011;58032;49.820;6.274;2022-10-31T03:38:39;10.40;;;3.47;;
70505;SDS011;58032;49.820;6.274;2022-10-31T03:41:10;12.05;;;3.20;;
70505;SDS011;58032;49.820;6.274;2022-10-31T03:43:45;9.55;;;2.83;;
70505;SDS011;58032;49.820;6.274;2022-10-31T03:46:19;9.77;;;3.05;;
70505;SDS011;58032;49.820;6.274;2022-10-31T03:48:46;13.23;;;3.80;;
70505;SDS011;58032;49.820;6.274;2022-10-31T03:51:28;11.23;;;3.10;;
70505;SDS011;58032;49.820;6.274;2022-10-31T03:56:52;12.68;;;3.40;;
70505;SDS011;58032;49.820;6.274;2022-10-31T04:01:50;9.35;;;3.08;;
70505;SDS011;58032;49.820;6.274;2022-10-31T04:04:21;7.90;;;3.10;;
70505;SDS011;58032;49.820;6.274;2022-10-31T04:06:48;10.57;;;3.17;;
70505;SDS011;58032;49.820;6.274;2022-10-31T04:09:18;7.85;;;2.95;;
70505;SDS011;58032;49.820;6.274;2022-10-31T04:11:48;7.50;;;2.85;;
70505;SDS011;58032;49.820;6.274;2022-10-31T04:14:37;8.43;;;3.00;;
70505;SDS011;58032;49.820;6.274;2022-10-31T04:17:09;7.80;;;3.30;;
70505;SDS011;58032;49.820;6.274;2022-10-31T04:19:41;9.77;;;3.28;;
70505;SDS011;58032;49.820;6.274;2022-10-31T04:22:08;7.53;;;2.78;;
70505;SDS011;58032;49.820;6.274;2022-10-31T04:24:37;11.85;;;3.30;;
70505;SDS011;58032;49.820;6.274;2022-10-31T04:27:07;14.38;;;3.65;;
70505;SDS011;58032;49.820;6.274;2022-10-31T04:29:34;11.37;;;4.97;;
70505;SDS011;58032;49.820;6.274;2022-10-31T04:32:01;9.45;;;3.67;;
70505;SDS011;58032;49.820;6.274;2022-10-31T04:34:28;9.85;;;3.78;;
70505;SDS011;58032;49.820;6.274;2022-10-31T04:36:55;10.40;;;4.00;;
70505;SDS011;58032;49.820;6.274;2022-10-31T04:39:22;9.40;;;3.50;;
70505;SDS011;58032;49.820;6.274;2022-10-31T04:42:08;8.23;;;2.97;;
70505;SDS011;58032;49.820;6.274;2022-10-31T04:44:35;10.52;;;3.53;;
70505;SDS011;58032;49.820;6.274;2022-10-31T04:47:02;12.18;;;3.70;;
70505;SDS011;58032;49.820;6.274;2022-10-31T04:49:30;10.38;;;3.10;;
70505;SDS011;58032;49.820;6.274;2022-10-31T04:51:57;12.32;;;3.80;;
70505;SDS011;58032;49.820;6.274;2022-10-31T04:54:23;8.63;;;3.50;;
70505;SDS011;58032;49.820;6.274;2022-10-31T04:56:53;9.75;;;3.10;;
70505;SDS011;58032;49.820;6.274;2022-10-31T04:59:21;7.93;;;3.55;;
70505;SDS011;58032;49.820;6.274;2022-10-31T05:01:51;8.57;;;3.25;;
70505;SDS011;58032;49.820;6.274;2022-10-31T05:04:31;7.50;;;3.33;;
70505;SDS011;58032;49.820;6.274;2022-10-31T05:06:58;8.43;;;3.27;;
70505;SDS011;58032;49.820;6.274;2022-10-31T05:09:26;11.55;;;3.47;;
70505;SDS011;58032;49.820;6.274;2022-10-31T05:11:53;6.78;;;2.95;;
70505;SDS011;58032;49.820;6.274;2022-10-31T05:14:42;8.10;;;3.65;;
70505;SDS011;58032;49.820;6.274;2022-10-31T05:17:39;9.93;;;3.35;;
70505;SDS011;58032;49.820;6.274;2022-10-31T05:20:38;6.50;;;2.97;;
70505;SDS011;58032;49.820;6.274;2022-10-31T05:23:31;8.13;;;2.92;;
70505;SDS011;58032;49.820;6.274;2022-10-31T05:25:58;12.27;;;3.67;;
70505;SDS011;58032;49.820;6.274;2022-10-31T05:28:26;7.82;;;3.45;;
70505;SDS011;58032;49.820;6.274;2022-10-31T05:30:53;7.18;;;3.40;;
70505;SDS011;58032;49.820;6.274;2022-10-31T05:33:20;10.77;;;3.70;;
70505;SDS011;58032;49.820;6.274;2022-10-31T05:36:02;9.73;;;4.00;;
70505;SDS011;58032;49.820;6.274;2022-10-31T05:38:35;10.35;;;3.67;;
70505;SDS011;58032;49.820;6.274;2022-10-31T05:41:12;8.45;;;3.45;;
70505;SDS011;58032;49.820;6.274;2022-10-31T05:43:44;12.77;;;4.10;;
70505;SDS011;58032;49.820;6.274;2022-10-31T05:46:12;12.87;;;4.50;;
70505;SDS011;58032;49.820;6.274;2022-10-31T05:49:08;10.48;;;3.90;;
70505;SDS011;58032;49.820;6.274;2022-10-31T05:51:54;13.75;;;4.05;;
70505;SDS011;58032;49.820;6.274;2022-10-31T05:54:29;12.82;;;3.83;;
70505;SDS011;58032;49.820;6.274;2022-10-31T05:56:56;8.77;;;3.85;;
70505;SDS011;58032;49.820;6.274;2022-10-31T05:59:22;9.67;;;3.50;;
70505;SDS011;58032;49.820;6.274;2022-10-31T06:01:49;11.60;;;3.88;;
70505;SDS011;58032;49.820;6.274;2022-10-31T06:04:30;8.40;;;3.70;;
70505;SDS011;58032;49.820;6.274;2022-10-31T06:06:57;9.55;;;3.90;;
70505;SDS011;58032;49.820;6.274;2022-10-31T06:09:24;10.18;;;3.80;;
70505;SDS011;58032;49.820;6.274;2022-10-31T06:11:52;8.60;;;4.00;;
70505;SDS011;58032;49.820;6.274;2022-10-31T06:14:38;12.50;;;3.88;;
70505;SDS011;58032;49.820;6.274;2022-10-31T06:17:07;9.55;;;3.80;;
70505;SDS011;58032;49.820;6.274;2022-10-31T06:19:59;11.70;;;4.32;;
70505;SDS011;58032;49.820;6.274;2022-10-31T06:22:29;11.93;;;4.13;;
70505;SDS011;58032;49.820;6.274;2022-10-31T06:24:56;10.50;;;3.77;;
70505;SDS011;58032;49.820;6.274;2022-10-31T06:27:33;10.40;;;3.92;;
70505;SDS011;58032;49.820;6.274;2022-10-31T06:30:07;9.43;;;3.47;;
70505;SDS011;58032;49.820;6.274;2022-10-31T06:32:36;11.18;;;4.35;;
70505;SDS011;58032;49.820;6.274;2022-10-31T06:35:03;13.45;;;4.43;;
70505;SDS011;58032;49.820;6.274;2022-10-31T06:37:31;9.90;;;3.50;;
70505;SDS011;58032;49.820;6.274;2022-10-31T06:40:04;12.77;;;4.50;;
70505;SDS011;58032;49.820;6.274;2022-10-31T06:42:46;11.13;;;4.32;;
70505;SDS011;58032;49.820;6.274;2022-10-31T06:45:13;10.35;;;3.85;;
70505;SDS011;58032;49.820;6.274;2022-10-31T06:47:59;11.20;;;4.28;;
70505;SDS011;58032;49.820;6.274;2022-10-31T06:51:02;13.60;;;4.17;;
70505;SDS011;58032;49.820;6.274;2022-10-31T06:53:30;12.98;;;4.53;;
70505;SDS011;58032;49.820;6.274;2022-10-31T06:55:57;13.20;;;3.88;;
70505;SDS011;58032;49.820;6.274;2022-10-31T06:58:25;12.32;;;4.07;;
70505;SDS011;58032;49.820;6.274;2022-10-31T07:00:58;13.70;;;4.00;;
70505;SDS011;58032;49.820;6.274;2022-10-31T07:03:25;12.00;;;3.73;;
70505;SDS011;58032;49.820;6.274;2022-10-31T07:05:54;10.00;;;4.05;;
70505;SDS011;58032;49.820;6.274;2022-10-31T07:08:22;11.82;;;3.67;;
70505;SDS011;58032;49.820;6.274;2022-10-31T07:10:55;9.95;;;3.55;;
70505;SDS011;58032;49.820;6.274;2022-10-31T07:13:24;12.57;;;3.95;;
70505;SDS011;58032;49.820;6.274;2022-10-31T07:16:12;9.13;;;3.67;;
70505;SDS011;58032;49.820;6.274;2022-10-31T07:18:43;12.73;;;4.20;;
70505;SDS011;58032;49.820;6.274;2022-10-31T07:21:11;8.43;;;3.70;;
70505;SDS011;58032;49.820;6.274;2022-10-31T07:23:39;10.10;;;3.67;;
70505;SDS011;58032;49.820;6.274;2022-10-31T07:26:24;11.05;;;3.50;;
70505;SDS011;58032;49.820;6.274;2022-10-31T07:28:52;9.80;;;3.70;;
70505;SDS011;58032;49.820;6.274;2022-10-31T07:31:22;6.68;;;3.00;;
70505;SDS011;58032;49.820;6.274;2022-10-31T07:33:51;14.32;;;4.38;;
70505;SDS011;58032;49.820;6.274;2022-10-31T07:36:27;9.85;;;3.97;;
70505;SDS011;58032;49.820;6.274;2022-10-31T07:38:59;9.73;;;3.67;;
70505;SDS011;58032;49.820;6.274;2022-10-31T07:41:26;11.83;;;3.90;;
70505;SDS011;58032;49.820;6.274;2022-10-31T07:43:53;10.90;;;3.45;;
70505;SDS011;58032;49.820;6.274;2022-10-31T07:46:40;10.80;;;3.60;;
70505;SDS011;58032;49.820;6.274;2022-10-31T07:49:26;10.15;;;3.83;;
70505;SDS011;58032;49.820;6.274;2022-10-31T07:52:11;8.75;;;3.60;;
70505;SDS011;58032;49.820;6.274;2022-10-31T07:55:05;9.77;;;3.93;;
70505;SDS011;58032;49.820;6.274;2022-10-31T07:57:34;11.32;;;4.40;;
70505;SDS011;58032;49.820;6.274;2022-10-31T08:00:03;11.13;;;3.30;;
70505;SDS011;58032;49.820;6.274;2022-10-31T08:02:40;8.80;;;3.33;;
70505;SDS011;58032;49.820;6.274;2022-10-31T08:05:36;9.75;;;3.42;;
70505;SDS011;58032;49.820;6.274;2022-10-31T08:08:36;8.97;;;3.67;;
70505;SDS011;58032;49.820;6.274;2022-10-31T08:11:04;9.48;;;3.58;;
70505;SDS011;58032;49.820;6.274;2022-10-31T08:13:31;9.82;;;4.43;;
70505;SDS011;58032;49.820;6.274;2022-10-31T08:15:58;14.23;;;4.72;;
70505;SDS011;58032;49.820;6.274;2022-10-31T08:18:33;11.93;;;3.95;;
70505;SDS011;58032;49.820;6.274;2022-10-31T08:21:01;14.20;;;4.20;;
70505;SDS011;58032;49.820;6.274;2022-10-31T08:23:28;10.88;;;3.88;;
70505;SDS011;58032;49.820;6.274;2022-10-31T08:25:55;11.35;;;4.25;;
70505;SDS011;58032;49.820;6.274;2022-10-31T08:28:23;11.98;;;3.83;;
70505;SDS011;58032;49.820;6.274;2022-10-31T08:30:52;11.63;;;4.35;;
70505;SDS011;58032;49.820;6.274;2022-10-31T08:33:52;11.23;;;4.97;;
70505;SDS011;58032;49.820;6.274;2022-10-31T08:36:54;9.20;;;3.58;;
70505;SDS011;58032;49.820;6.274;2022-10-31T08:39:28;11.75;;;4.03;;
70505;SDS011;58032;49.820;6.274;2022-10-31T08:41:57;13.57;;;4.00;;
70505;SDS011;58032;49.820;6.274;2022-10-31T08:44:24;9.95;;;4.03;;
70505;SDS011;58032;49.820;6.274;2022-10-31T08:46:51;13.77;;;4.10;;
70505;SDS011;58032;49.820;6.274;2022-10-31T08:49:21;14.00;;;4.82;;
70505;SDS011;58032;49.820;6.274;2022-10-31T08:51:48;12.75;;;5.78;;
70505;SDS011;58032;49.820;6.274;2022-10-31T08:54:15;14.35;;;4.78;;
70505;SDS011;58032;49.820;6.274;2022-10-31T08:56:53;14.73;;;4.40;;
70505;SDS011;58032;49.820;6.274;2022-10-31T08:59:37;8.63;;;4.03;;
70505;SDS011;58032;49.820;6.274;2022-10-31T09:02:33;10.18;;;4.13;;
70505;SDS011;58032;49.820;6.274;2022-10-31T09:05:01;9.38;;;3.70;;
70505;SDS011;58032;49.820;6.274;2022-10-31T09:07:28;11.45;;;4.70;;
70505;SDS011;58032;49.820;6.274;2022-10-31T09:09:55;10.85;;;4.60;;
70505;SDS011;58032;49.820;6.274;2022-10-31T09:12:22;9.10;;;4.00;;
70505;SDS011;58032;49.820;6.274;2022-10-31T09:15:08;10.13;;;3.92;;
70505;SDS011;58032;49.820;6.274;2022-10-31T09:17:54;11.00;;;4.10;;
70505;SDS011;58032;49.820;6.274;2022-10-31T09:20:30;7.18;;;3.53;;
70505;SDS011;58032;49.820;6.274;2022-10-31T09:23:03;15.88;;;4.38;;
70505;SDS011;58032;49.820;6.274;2022-10-31T09:25:38;11.27;;;4.10;;
70505;SDS011;58032;49.820;6.274;2022-10-31T09:28:24;10.93;;;4.20;;
70505;SDS011;58032;49.820;6.274;2022-10-31T09:30:53;10.52;;;3.80;;
70505;SDS011;58032;49.820;6.274;2022-10-31T09:33:47;9.70;;;3.73;;
70505;SDS011;58032;49.820;6.274;2022-10-31T09:36:39;11.30;;;3.83;;
70505;SDS011;58032;49.820;6.274;2022-10-31T09:39:12;14.55;;;4.03;;
70505;SDS011;58032;49.820;6.274;2022-10-31T09:50:50;11.38;;;3.78;;
70505;SDS011;58032;49.820;6.274;2022-10-31T09:56:22;10.25;;;3.95;;
70505;SDS011;58032;49.820;6.274;2022-10-31T09:58:55;10.38;;;4.07;;
70505;SDS011;58032;49.820;6.274;2022-10-31T10:04:05;7.75;;;3.25;;
70505;SDS011;58032;49.820;6.274;2022-10-31T10:06:55;7.68;;;3.53;;
70505;SDS011;58032;49.820;6.274;2022-10-31T10:10:04;7.25;;;3.50;;
70505;SDS011;58032;49.820;6.274;2022-10-31T10:16:23;11.10;;;3.73;;
70505;SDS011;58032;49.820;6.274;2022-10-31T10:21:29;10.70;;;3.78;;
70505;SDS011;58032;49.820;6.274;2022-10-31T10:24:19;14.23;;;3.95;;
70505;SDS011;58032;49.820;6.274;2022-10-31T10:32:54;12.20;;;3.70;;
70505;SDS011;58032;49.820;6.274;2022-10-31T10:35:38;8.73;;;3.85;;
70505;SDS011;58032;49.820;6.274;2022-10-31T10:40:36;9.68;;;3.88;;
70505;SDS011;58032;49.820;6.274;2022-10-31T10:45:53;10.80;;;4.05;;
70505;SDS011;58032;49.820;6.274;2022-10-31T10:48:55;11.80;;;4.30;;
70505;SDS011;58032;49.820;6.274;2022-10-31T10:51:45;10.10;;;3.78;;
70505;SDS011;58032;49.820;6.274;2022-10-31T10:54:56;12.20;;;4.57;;
70505;SDS011;58032;49.820;6.274;2022-10-31T11:00:25;10.48;;;4.40;;
70505;SDS011;58032;49.820;6.274;2022-10-31T11:02:54;10.60;;;3.78;;
70505;SDS011;58032;49.820;6.274;2022-10-31T11:05:27;8.20;;;3.80;;
70505;SDS011;58032;49.820;6.274;2022-10-31T11:08:01;10.50;;;3.17;;
70505;SDS011;58032;49.820;6.274;2022-10-31T11:10:28;8.90;;;2.80;;
70505;SDS011;58032;49.820;6.274;2022-10-31T11:16:04;7.40;;;3.47;;
70505;SDS011;58032;49.820;6.274;2022-10-31T11:18:39;9.63;;;3.55;;
70505;SDS011;58032;49.820;6.274;2022-10-31T11:21:28;10.82;;;3.80;;
70505;SDS011;58032;49.820;6.274;2022-10-31T11:26:38;9.85;;;3.35;;
70505;SDS011;58032;49.820;6.274;2022-10-31T11:29:25;11.18;;;3.38;;
70505;SDS011;58032;49.820;6.274;2022-10-31T11:31:53;7.03;;;3.53;;
70505;SDS011;58032;49.820;6.274;2022-10-31T11:34:31;10.30;;;3.78;;
70505;SDS011;58032;49.820;6.274;2022-10-31T11:37:03;13.50;;;4.20;;
70505;SDS011;58032;49.820;6.274;2022-10-31T11:39:41;8.60;;;3.30;;
70505;SDS011;58032;49.820;6.274;2022-10-31T11:42:11;10.88;;;3.70;;
70505;SDS011;58032;49.820;6.274;2022-10-31T11:44:41;11.13;;;3.78;;
70505;SDS011;58032;49.820;6.274;2022-10-31T11:47:11;8.02;;;3.42;;
70505;SDS011;58032;49.820;6.274;2022-10-31T11:49:42;9.77;;;3.47;;
70505;SDS011;58032;49.820;6.274;2022-10-31T11:52:16;10.27;;;3.35;;
70505;SDS011;58032;49.820;6.274;2022-10-31T11:54:48;11.18;;;3.70;;
70505;SDS011;58032;49.820;6.274;2022-10-31T11:57:23;8.68;;;4.00;;
70505;SDS011;58032;49.820;6.274;2022-10-31T12:00:21;10.13;;;3.30;;
70505;SDS011;58032;49.820;6.274;2022-10-31T12:02:48;10.90;;;3.90;;
70505;SDS011;58032;49.820;6.274;2022-10-31T12:05:19;9.60;;;3.50;;
70505;SDS011;58032;49.820;6.274;2022-10-31T12:07:51;9.95;;;3.28;;
70505;SDS011;58032;49.820;6.274;2022-10-31T12:10:19;9.20;;;3.33;;
70505;SDS011;58032;49.820;6.274;2022-10-31T12:13:08;8.95;;;3.13;;
70505;SDS011;58032;49.820;6.274;2022-10-31T12:15:53;11.00;;;3.03;;
70505;SDS011;58032;49.820;6.274;2022-10-31T12:26:42;9.30;;;3.00;;
70505;SDS011;58032;49.820;6.274;2022-10-31T12:32:15;9.77;;;3.28;;
70505;SDS011;58032;49.820;6.274;2022-10-31T12:37:44;7.95;;;3.00;;
70505;SDS011;58032;49.820;6.274;2022-10-31T12:43:35;9.23;;;3.27;;
70505;SDS011;58032;49.820;6.274;2022-10-31T12:55:03;9.02;;;3.60;;
70505;SDS011;58032;49.820;6.274;2022-10-31T12:57:39;7.13;;;2.90;;
70505;SDS011;58032;49.820;6.274;2022-10-31T13:00:15;10.77;;;3.22;;
70505;SDS011;58032;49.820;6.274;2022-10-31T13:02:51;8.90;;;3.47;;
70505;SDS011;58032;49.820;6.274;2022-10-31T13:05:26;8.88;;;3.70;;
70505;SDS011;58032;49.820;6.274;2022-10-31T13:08:10;9.30;;;2.80;;
70505;SDS011;58032;49.820;6.274;2022-10-31T13:10:42;8.30;;;3.27;;
70505;SDS011;58032;49.820;6.274;2022-10-31T13:13:14;9.95;;;3.22;;
70505;SDS011;58032;49.820;6.274;2022-10-31T13:15:52;9.07;;;3.72;;
70505;SDS011;58032;49.820;6.274;2022-10-31T13:18:48;7.80;;;3.28;;
70505;SDS011;58032;49.820;6.274;2022-10-31T13:21:23;8.63;;;3.57;;
70505;SDS011;58032;49.820;6.274;2022-10-31T13:23:53;8.40;;;3.25;;
70505;SDS011;58032;49.820;6.274;2022-10-31T13:26:37;7.47;;;2.90;;
70505;SDS011;58032;49.820;6.274;2022-10-31T13:31:51;8.77;;;2.88;;
70505;SDS011;58032;49.820;6.274;2022-10-31T13:34:20;9.70;;;3.10;;
70505;SDS011;58032;49.820;6.274;2022-10-31T13:37:14;11.05;;;3.47;;
70505;SDS011;58032;49.820;6.274;2022-10-31T13:45:26;9.40;;;3.00;;
70505;SDS011;58032;49.820;6.274;2022-10-31T13:47:56;7.87;;;3.10;;
70505;SDS011;58032;49.820;6.274;2022-10-31T13:50:57;8.00;;;2.85;;
70505;SDS011;58032;49.820;6.274;2022-10-31T13:53:36;8.50;;;2.75;;
70505;SDS011;58032;49.820;6.274;2022-10-31T13:58:55;8.65;;;3.25;;
70505;SDS011;58032;49.820;6.274;2022-10-31T14:01:32;8.07;;;2.80;;
70505;SDS011;58032;49.820;6.274;2022-10-31T14:09:15;9.35;;;2.58;;
70505;SDS011;58032;49.820;6.274;2022-10-31T14:11:46;8.55;;;3.00;;
70505;SDS011;58032;49.820;6.274;2022-10-31T14:14:14;7.63;;;2.57;;
70505;SDS011;58032;49.820;6.274;2022-10-31T14:16:44;8.25;;;2.80;;
70505;SDS011;58032;49.820;6.274;2022-10-31T14:19:16;9.27;;;2.90;;
70505;SDS011;58032;49.820;6.274;2022-10-31T14:21:47;9.90;;;2.60;;
70505;SDS011;58032;49.820;6.274;2022-10-31T14:27:01;8.10;;;3.13;;
70505;SDS011;58032;49.820;6.274;2022-10-31T14:29:50;8.95;;;2.80;;
70505;SDS011;58032;49.820;6.274;2022-10-31T14:32:21;8.98;;;3.00;;
70505;SDS011;58032;49.820;6.274;2022-10-31T14:37:35;9.18;;;3.28;;
70505;SDS011;58032;49.820;6.274;2022-10-31T14:40:27;8.50;;;2.87;;
70505;SDS011;58032;49.820;6.274;2022-10-31T14:46:01;9.10;;;3.15;;
70505;SDS011;58032;49.820;6.274;2022-10-31T14:53:00;8.05;;;2.78;;
70505;SDS011;58032;49.820;6.274;2022-10-31T14:55:29;7.75;;;3.30;;
70505;SDS011;58032;49.820;6.274;2022-10-31T14:57:58;7.60;;;2.92;;
70505;SDS011;58032;49.820;6.274;2022-10-31T15:00:31;7.47;;;2.53;;
70505;SDS011;58032;49.820;6.274;2022-10-31T15:03:44;8.75;;;2.70;;
70505;SDS011;58032;49.820;6.274;2022-10-31T15:06:11;8.32;;;2.90;;
70505;SDS011;58032;49.820;6.274;2022-10-31T15:08:40;7.63;;;3.03;;
70505;SDS011;58032;49.820;6.274;2022-10-31T15:11:21;10.55;;;2.65;;
70505;SDS011;58032;49.820;6.274;2022-10-31T15:13:54;8.65;;;2.78;;
70505;SDS011;58032;49.820;6.274;2022-10-31T15:16:26;9.98;;;2.60;;
70505;SDS011;58032;49.820;6.274;2022-10-31T15:19:03;10.63;;;2.50;;
70505;SDS011;58032;49.820;6.274;2022-10-31T15:21:33;8.07;;;2.42;;
70505;SDS011;58032;49.820;6.274;2022-10-31T15:24:05;6.93;;;2.72;;
70505;SDS011;58032;49.820;6.274;2022-10-31T15:26:35;5.82;;;2.03;;
70505;SDS011;58032;49.820;6.274;2022-10-31T15:29:21;7.88;;;2.78;;
70505;SDS011;58032;49.820;6.274;2022-10-31T15:32:33;5.97;;;2.15;;
70505;SDS011;58032;49.820;6.274;2022-10-31T15:35:08;10.63;;;3.00;;
70505;SDS011;58032;49.820;6.274;2022-10-31T15:37:36;8.50;;;2.63;;
70505;SDS011;58032;49.820;6.274;2022-10-31T15:40:11;10.50;;;2.70;;
70505;SDS011;58032;49.820;6.274;2022-10-31T15:42:44;8.63;;;2.78;;
70505;SDS011;58032;49.820;6.274;2022-10-31T15:45:43;9.50;;;2.33;;
70505;SDS011;58032;49.820;6.274;2022-10-31T15:50:58;9.55;;;2.67;;
70505;SDS011;58032;49.820;6.274;2022-10-31T15:53:51;8.55;;;2.97;;
70505;SDS011;58032;49.820;6.274;2022-10-31T15:56:20;10.05;;;2.80;;
70505;SDS011;58032;49.820;6.274;2022-10-31T15:58:50;9.35;;;2.88;;
70505;SDS011;58032;49.820;6.274;2022-10-31T16:01:25;6.35;;;2.85;;
70505;SDS011;58032;49.820;6.274;2022-10-31T16:06:38;8.13;;;2.70;;
70505;SDS011;58032;49.820;6.274;2022-10-31T16:09:20;10.25;;;2.50;;
70505;SDS011;58032;49.820;6.274;2022-10-31T16:11:49;5.63;;;2.40;;
70505;SDS011;58032;49.820;6.274;2022-10-31T16:14:34;9.60;;;2.42;;
70505;SDS011;58032;49.820;6.274;2022-10-31T16:17:25;10.35;;;2.70;;
70505;SDS011;58032;49.820;6.274;2022-10-31T16:20:02;5.55;;;2.42;;
70505;SDS011;58032;49.820;6.274;2022-10-31T16:22:36;6.75;;;2.05;;
70505;SDS011;58032;49.820;6.274;2022-10-31T16:25:12;9.20;;;2.65;;
70505;SDS011;58032;49.820;6.274;2022-10-31T16:27:54;11.85;;;2.60;;
70505;SDS011;58032;49.820;6.274;2022-10-31T16:30:37;11.50;;;2.80;;
70505;SDS011;58032;49.820;6.274;2022-10-31T16:33:35;8.32;;;2.60;;
70505;SDS011;58032;49.820;6.274;2022-10-31T16:36:31;12.07;;;2.58;;
70505;SDS011;58032;49.820;6.274;2022-10-31T16:39:19;12.57;;;2.90;;
70505;SDS011;58032;49.820;6.274;2022-10-31T16:41:55;12.43;;;3.05;;
70505;SDS011;58032;49.820;6.274;2022-10-31T16:44:55;8.05;;;2.90;;
70505;SDS011;58032;49.820;6.274;2022-10-31T16:47:36;11.55;;;2.55;;
70505;SDS011;58032;49.820;6.274;2022-10-31T16:50:29;9.10;;;2.60;;
70505;SDS011;58032;49.820;6.274;2022-10-31T16:52:56;9.95;;;3.05;;
70505;SDS011;58032;49.820;6.274;2022-10-31T16:58:36;7.10;;;2.40;;
70505;SDS011;58032;49.820;6.274;2022-10-31T17:01:13;10.98;;;2.67;;
70505;SDS011;58032;49.820;6.274;2022-10-31T17:03:40;8.27;;;3.20;;
70505;SDS011;58032;49.820;6.274;2022-10-31T17:06:10;8.38;;;2.60;;
70505;SDS011;58032;49.820;6.274;2022-10-31T17:08:40;7.50;;;2.58;;
70505;SDS011;58032;49.820;6.274;2022-10-31T17:11:19;6.85;;;2.78;;
70505;SDS011;58032;49.820;6.274;2022-10-31T17:13:56;8.25;;;2.72;;
70505;SDS011;58032;49.820;6.274;2022-10-31T17:16:50;6.85;;;2.65;;
70505;SDS011;58032;49.820;6.274;2022-10-31T17:19:24;9.27;;;3.17;;
70505;SDS011;58032;49.820;6.274;2022-10-31T17:22:10;12.48;;;3.00;;
70505;SDS011;58032;49.820;6.274;2022-10-31T17:24:40;13.43;;;4.25;;
70505;SDS011;58032;49.820;6.274;2022-10-31T17:27:13;8.02;;;3.05;;
70505;SDS011;58032;49.820;6.274;2022-10-31T17:29:51;9.35;;;2.70;;
70505;SDS011;58032;49.820;6.274;2022-10-31T17:32:24;7.03;;;2.75;;
70505;SDS011;58032;49.820;6.274;2022-10-31T17:35:07;8.68;;;3.10;;
70505;SDS011;58032;49.820;6.274;2022-10-31T17:37:59;8.90;;;3.38;;
70505;SDS011;58032;49.820;6.274;2022-10-31T17:40:39;15.00;;;7.72;;
70505;SDS011;58032;49.820;6.274;2022-10-31T17:43:08;13.95;;;4.60;;
70505;SDS011;58032;49.820;6.274;2022-10-31T17:45:39;15.30;;;4.25;;
70505;SDS011;58032;49.820;6.274;2022-10-31T17:48:30;16.00;;;4.60;;
70505;SDS011;58032;49.820;6.274;2022-10-31T17:51:02;15.10;;;5.05;;